WetterOnline ( https://www.wetteronline.de )

Wetter aktuell Grothusenkoog

Aktuelles Wetter: St. Peter-Ording (11m)

6-stündlich | Neueste Meldungen
Ortszeit Temperatur Wetter
Mi, 28.10. 13:00 12.2° C bewölkt
Mi, 28.10. 7:00 11.0° C leicht bewölkt
Mi, 28.10. 1:00 9.8° C Sprühregen
Di, 27.10. 19:00 10.7° C wolkig
Di, 27.10. 13:00 11.6° C leicht bewölkt
Di, 27.10. 7:00 9.7° C fast wolkenlos
Di, 27.10. 1:00 10.1° C wolkenlos
Mo, 26.10. 19:00 10.8° C bewölkt
Ortszeit Temperatur Wetter
Mi, 28.10. 18:30 11.8° C wolkig
Mi, 28.10. 18:20 11.8° C wolkig
Mi, 28.10. 18:10 11.9° C wolkig
Mi, 28.10. 18:00 11.8° C bewölkt
Mi, 28.10. 17:50 11.8° C bewölkt
Mi, 28.10. 17:40 11.9° C bewölkt
Mi, 28.10. 17:30 12.1° C wolkig
Mi, 28.10. 17:00 12.0° C wolkig
Mi, 28.10. 15:00 12.4° C bewölkt
Ortszeit Relative Feuchte Sichtweite
Mi, 28.10. 13:00 74% 30 km
Mi, 28.10. 7:00 85% 16 km
Mi, 28.10. 1:00 88% 4.8 km
Di, 27.10. 19:00 79% 30 km
Di, 27.10. 13:00 75% 23 km
Di, 27.10. 7:00 87% 19 km
Di, 27.10. 1:00 81% 25 km
Mo, 26.10. 19:00 75% 30 km
Ortszeit Relative Feuchte Sichtweite
Mi, 28.10. 18:30 76% 20 km
Mi, 28.10. 18:20 76% -
Mi, 28.10. 18:10 77% -
Mi, 28.10. 18:00 76% 21 km
Mi, 28.10. 17:50 76% -
Mi, 28.10. 17:40 78% -
Mi, 28.10. 17:30 77% 22 km
Mi, 28.10. 17:00 78% 18 km
Mi, 28.10. 15:00 74% 24 km
Ortszeit Niederschlagsmenge Niederschlagsart
Mi, 28.10. 13:00 0.0 l/m2 in 6 Std. -
Mi, 28.10. 7:00 5 l/m2 in 12 Std. Regen
Mi, 28.10. 1:00 1 l/m2 in 6 Std. Regen
Di, 27.10. 19:00 0.0 l/m2 in 12 Std. -
Di, 27.10. 13:00 0.0 l/m2 in 6 Std. -
Di, 27.10. 7:00 0.0 l/m2 in 12 Std. -
Di, 27.10. 1:00 0.0 l/m2 in 6 Std. -
Mo, 26.10. 19:00 0.1 l/m2 in 12 Std. -
Ortszeit Niederschlagsmenge Niederschlagsart
Mi, 28.10. 18:30 0.0 l/m2 in 1 Std. -
Mi, 28.10. 18:20 keine Meldung -
Mi, 28.10. 18:10 keine Meldung -
Mi, 28.10. 18:00 0.0 l/m2 in 1 Std. -
Mi, 28.10. 17:50 keine Meldung -
Mi, 28.10. 17:40 keine Meldung -
Mi, 28.10. 17:30 0.0 l/m2 in 1 Std. -
Mi, 28.10. 17:00 0.0 l/m2 in 1 Std. -
Mi, 28.10. 15:00 keine Meldung -
Ortszeit Stärke Spitze Richtung
km/h Bft. km/h Grad Sektor
Mi, 28.10. 13:00 36 5 54 210° SW
Mi, 28.10. 7:00 37 5 61 230° SW
Mi, 28.10. 1:00 36 5 61 190° S
Di, 27.10. 19:00 35 5 57 190° S
Di, 27.10. 13:00 39 6 59 210° SW
Di, 27.10. 7:00 36 5 58 210° SW
Di, 27.10. 1:00 36 5 54 200° S
Mo, 26.10. 19:00 28 4 46 210° SW
Ortszeit Stärke Spitze Richtung
km/h Bft. km/h Grad Sektor
Mi, 28.10. 18:30 31 5 50 220° SW
Mi, 28.10. 18:20 31 5 - 220° SW
Mi, 28.10. 18:10 37 5 - 220° SW
Mi, 28.10. 18:00 30 5 48 210° SW
Mi, 28.10. 17:50 30 5 - 210° SW
Mi, 28.10. 17:40 31 5 - 210° SW
Mi, 28.10. 17:30 35 5 48 210° SW
Mi, 28.10. 17:00 33 5 46 220° SW
Mi, 28.10. 15:00 36 5 58 220° SW
Ortszeit Untergrenze Bedeckung Gattung
total tief tief mittel hoch
Mi, 28.10. 13:00 1800 m 7/8 7/8 - - -
Mi, 28.10. 7:00 540 m 4/8 4/8 - - -
Mi, 28.10. 1:00 510 m 8/8 8/8 - - -
Di, 27.10. 19:00 1800 m 8/8 1/8 - - -
Di, 27.10. 13:00 510 m 3/8 3/8 - - -
Di, 27.10. 7:00 330 m 1/8 1/8 - - -
Di, 27.10. 1:00 570 m 0/8 0/8 - - -
Mo, 26.10. 19:00 810 m 7/8 7/8 - - -
Ortszeit Bedeckungsgrad in Achtel und Wolkenuntergrenze
Mi, 28.10. 18:30 3(750m) 7(3000m) 8(4500m)
Mi, 28.10. 18:20 3(750m) 7(3000m) 8(4500m)
Mi, 28.10. 18:10 3(750m) 7(3300m) 8(4500m)
Mi, 28.10. 18:00 6(870m) 7(1200m) 7(3600m)
Mi, 28.10. 17:50 6(870m) 7(1200m) 7(3600m)
Mi, 28.10. 17:40 2(780m) 7(1350m) 7(3600m)
Mi, 28.10. 17:30 4(840m) 7(3900m) 7(4500m)
Mi, 28.10. 17:00 3(900m) 7(4800m) 7(5400m)
Mi, 28.10. 15:00 2(840m) 6(1500m) 7(1800m)
Ortszeit Luftdruck NN (hPa) Tendenz (hPa in 3 Std.)
Mi, 28.10. 13:00 1004 + 0,6
Mi, 28.10. 7:00 1001 + 2,0
Mi, 28.10. 1:00 998 - 1,5
Di, 27.10. 19:00 1001 - 0,5
Di, 27.10. 13:00 1002 + 0,7
Di, 27.10. 7:00 1000 + 0,8
Di, 27.10. 1:00 999 - 0,7
Mo, 26.10. 19:00 1000 + 0,2
Ortszeit Luftdruck NN (hPa) Tendenz (hPa in 3 Std.)
Mi, 28.10. 18:30 1004 + 0,1
Mi, 28.10. 18:20 1004 keine Meldung
Mi, 28.10. 18:10 1004 keine Meldung
Mi, 28.10. 18:00 1004 + 0,2
Mi, 28.10. 17:50 1004 keine Meldung
Mi, 28.10. 17:40 1004 keine Meldung
Mi, 28.10. 17:30 1004 + 0,1
Mi, 28.10. 17:00 1004 + 0,1
Mi, 28.10. 15:00 1004 + 0,2
Ortszeit Schneehöhe (cm)
Mi, 28.10. 13:00 0
Mi, 28.10. 7:00 0
Mi, 28.10. 1:00 0
Di, 27.10. 19:00 0
Di, 27.10. 13:00 0
Di, 27.10. 7:00 0
Di, 27.10. 1:00 0
Mo, 26.10. 19:00 0
Ortszeit Schneehöhe (cm)
Mi, 28.10. 18:30 0
Mi, 28.10. 18:20 0
Mi, 28.10. 18:10 0
Mi, 28.10. 18:00 0
Mi, 28.10. 17:50 0
Mi, 28.10. 17:40 0
Mi, 28.10. 17:30 0
Mi, 28.10. 17:00 0
Mi, 28.10. 15:00 -
Link zu dieser Seite / Seite empfehlen

Das Wetter in ...